Time;durP1;ratioP1;P1;durP2;ratioP2;P2;SDS_P1;SDS_P2;PMS_P1;PMS_P2;Temp;Humidity;BMP_temperature;BMP_pressure;BME280_temperature;BME280_humidity;BME280_pressure;Samples;Min_cycle;Max_cycle;Signal;HPM_P1;HPM_P2
2021/12/03 00:00:43;;;;;;;;;;;;;;;3.37;77.39;98989.70;1800371;80;20265;-61
2021/12/03 00:03:11;;;;;;;;;;;;;;;3.34;77.46;98996.84;1800533;80;20574;-60
2021/12/03 00:05:41;;;;;;;;;;;;;;;3.32;77.59;98998.05;1782823;80;20205;-61
2021/12/03 00:08:11;;;;;;;;;;;;;;;3.32;77.70;99000.25;1800337;80;20213;-61
2021/12/03 00:10:40;;;;;;;;;;;;;;;3.34;77.76;98995.48;1800433;80;20226;-61
2021/12/03 00:13:09;;;;;;;;;;;;;;;3.33;77.90;99004.63;1800332;80;20174;-61
2021/12/03 00:15:38;;;;;;;;;;;;;;;3.36;77.96;98999.36;1800582;80;20448;-61
2021/12/03 00:18:06;;;;;;;;;;;;;;;3.34;77.87;98995.48;1800379;80;20174;-61
2021/12/03 00:20:36;;;;;;;;;;;;;;;3.32;77.88;98996.70;1800467;80;20173;-60
2021/12/03 00:23:04;;;;;;;;;;;;;;;3.26;77.84;99000.98;1800366;80;20221;-60
2021/12/03 00:25:33;;;;;;;;;;;;;;;3.20;77.87;98993.58;1800525;80;20502;-62
2021/12/03 00:28:02;;;;;;;;;;;;;;;3.14;77.92;98994.31;1800310;80;20471;-61
2021/12/03 00:30:34;;;;;;;;;;;;;;;3.12;78.14;98997.72;1800444;80;20206;-61
2021/12/03 00:33:02;;;;;;;;;;;;;;;3.11;78.38;98996.88;1800360;80;20455;-60
2021/12/03 00:35:30;;;;;;;;;;;;;;;3.11;78.35;98998.75;1800210;80;20182;-60
2021/12/03 00:37:59;;;;;;;;;;;;;;;3.09;78.43;98992.68;1800467;80;20185;-60
2021/12/03 00:40:30;;;;;;;;;;;;;;;3.09;78.62;99000.28;1800390;80;20185;-61
2021/12/03 00:42:58;;;;;;;;;;;;;;;3.12;78.71;98999.07;1800380;80;20185;-61
2021/12/03 00:45:30;;;;;;;;;;;;;;;3.15;78.85;98991.94;1800353;80;20217;-60
2021/12/03 00:48:00;;;;;;;;;;;;;;;3.17;78.90;98988.53;1800451;80;20157;-60
2021/12/03 00:50:29;;;;;;;;;;;;;;;3.21;79.04;98981.72;1800594;80;20496;-59
2021/12/03 00:52:58;;;;;;;;;;;;;;;3.27;79.16;98981.53;1800338;80;20213;-60
2021/12/03 00:55:28;;;;;;;;;;;;;;;3.34;79.13;98978.41;1800710;80;20432;-61
2021/12/03 00:57:56;;;;;;;;;;;;;;;3.38;78.92;98979.20;1800434;80;20159;-62
2021/12/03 01:00:28;;;;;;;;;;;;;;;3.40;78.85;98991.20;1800298;80;20165;-61
2021/12/03 01:02:57;;;;;;;;;;;;;;;3.42;78.75;98989.14;1800372;80;20189;-60
2021/12/03 01:05:27;;;;;;;;;;;;;;;3.45;78.65;98989.61;1800285;80;20228;-60
2021/12/03 01:07:55;;;;;;;;;;;;;;;3.48;78.53;98990.59;1800296;80;20177;-60
2021/12/03 01:10:24;;;;;;;;;;;;;;;3.53;78.43;98994.60;1800005;80;20538;-66
2021/12/03 01:12:53;;;;;;;;;;;;;;;3.55;78.33;98997.45;1800343;80;20150;-61
2021/12/03 01:15:24;;;;;;;;;;;;;;;3.58;78.22;98992.17;1800455;80;20177;-62
2021/12/03 01:17:53;;;;;;;;;;;;;;;3.60;78.13;98984.70;1799803;79;20166;-61
2021/12/03 01:20:21;;;;;;;;;;;;;;;3.62;78.02;98982.64;1800323;80;20149;-60
2021/12/03 01:22:50;;;;;;;;;;;;;;;3.65;77.90;98995.80;1800614;80;20477;-59
2021/12/03 01:25:19;;;;;;;;;;;;;;;3.66;77.77;98982.08;1800075;80;20531;-60
2021/12/03 01:27:47;;;;;;;;;;;;;;;3.66;77.58;98978.53;1800357;80;20541;-61
2021/12/03 01:30:17;;;;;;;;;;;;;;;3.66;77.48;98969.05;1800315;80;20512;-60
2021/12/03 01:32:47;;;;;;;;;;;;;;;3.67;77.33;98972.09;1800184;80;20337;-61
2021/12/03 01:35:16;;;;;;;;;;;;;;;3.67;77.27;98974.80;1800463;80;20146;-61
2021/12/03 01:37:44;;;;;;;;;;;;;;;3.67;77.29;98963.45;1800353;80;20154;-60
2021/12/03 01:40:15;;;;;;;;;;;;;;;3.69;77.24;98970.03;1800648;80;20257;-59
2021/12/03 01:42:44;;;;;;;;;;;;;;;3.69;77.20;98971.38;1800163;80;20213;-61
2021/12/03 01:45:16;;;;;;;;;;;;;;;3.68;77.16;98967.83;1800326;80;20468;-59
2021/12/03 01:47:45;;;;;;;;;;;;;;;3.67;77.09;98966.67;1800338;80;20154;-60
2021/12/03 01:50:14;;;;;;;;;;;;;;;3.65;77.04;98962.80;1800121;80;20189;-60
2021/12/03 01:52:43;;;;;;;;;;;;;;;3.61;76.95;98960.66;1800111;80;20257;-60
2021/12/03 01:55:12;;;;;;;;;;;;;;;3.54;76.96;98961.08;1800192;80;20201;-61
2021/12/03 01:57:40;;;;;;;;;;;;;;;3.49;77.02;98961.13;1800434;80;20507;-60
2021/12/03 02:00:13;;;;;;;;;;;;;;;3.45;77.13;98954.92;1800215;80;20524;-60
2021/12/03 02:02:41;;;;;;;;;;;;;;;3.44;77.27;98960.02;1800461;80;20463;-63
2021/12/03 02:05:10;;;;;;;;;;;;;;;3.43;77.40;98955.11;1800334;80;20158;-60
2021/12/03 02:07:38;;;;;;;;;;;;;;;3.47;77.45;98951.52;1799995;80;20376;-61
2021/12/03 02:10:07;;;;;;;;;;;;;;;3.49;77.43;98954.88;1800164;80;20173;-60
2021/12/03 02:12:36;;;;;;;;;;;;;;;3.49;77.39;98950.81;1800493;80;20520;-59
2021/12/03 02:15:05;;;;;;;;;;;;;;;3.47;77.40;98951.00;1800156;80;20524;-60
2021/12/03 02:17:34;;;;;;;;;;;;;;;3.45;77.44;98945.45;1799880;80;20161;-61
2021/12/03 02:20:06;;;;;;;;;;;;;;;3.46;77.54;98941.72;1800226;80;20209;-61
2021/12/03 02:22:34;;;;;;;;;;;;;;;3.45;77.66;98942.74;1800302;80;20157;-60
2021/12/03 02:25:04;;;;;;;;;;;;;;;3.46;77.69;98948.48;1763180;81;20748;-59
2021/12/03 02:27:33;;;;;;;;;;;;;;;3.45;77.69;98946.29;1762020;81;20176;-61
2021/12/03 02:30:01;;;;;;;;;;;;;;;3.44;77.62;98950.53;1762126;81;20161;-61
2021/12/03 02:32:30;;;;;;;;;;;;;;;3.40;77.65;98958.20;1762373;81;20213;-61
2021/12/03 02:35:01;;;;;;;;;;;;;;;3.35;77.66;98957.91;1761711;81;20184;-60
2021/12/03 02:37:29;;;;;;;;;;;;;;;3.30;77.79;98954.93;1762298;81;20529;-66
2021/12/03 02:39:58;;;;;;;;;;;;;;;3.27;77.91;98955.30;1762004;81;20145;-60
2021/12/03 02:42:26;;;;;;;;;;;;;;;3.27;78.03;98945.83;1761713;81;20160;-59
2021/12/03 02:44:56;;;;;;;;;;;;;;;3.30;78.15;98945.45;1762533;81;20165;-59
2021/12/03 02:47:24;;;;;;;;;;;;;;;3.32;78.14;98940.70;1761808;81;20156;-61
2021/12/03 02:49:53;;;;;;;;;;;;;;;3.34;78.14;98926.46;1761738;81;20164;-60
2021/12/03 02:52:21;;;;;;;;;;;;;;;3.37;78.14;98912.55;1761847;81;20168;-60
2021/12/03 02:54:49;;;;;;;;;;;;;;;3.40;78.10;98910.82;1762060;81;20223;-61
2021/12/03 02:57:18;;;;;;;;;;;;;;;3.44;78.03;98918.89;1761385;81;20164;-60
2021/12/03 02:59:47;;;;;;;;;;;;;;;3.47;77.93;98913.09;1761819;81;20161;-60
2021/12/03 03:02:17;;;;;;;;;;;;;;;3.49;77.87;98906.98;1761984;81;20160;-69
2021/12/03 03:04:49;;;;;;;;;;;;;;;3.48;77.78;98899.89;1761784;81;20259;-61
2021/12/03 03:07:18;;;;;;;;;;;;;;;3.47;77.71;98904.98;1761609;81;20514;-61
2021/12/03 03:09:46;;;;;;;;;;;;;;;3.46;77.71;98895.69;1762013;81;20184;-60
2021/12/03 03:12:15;;;;;;;;;;;;;;;3.45;77.70;98888.59;1761988;81;20156;-60
2021/12/03 03:14:52;;;;;;;;;;;;;;;3.44;77.64;98885.56;1762118;81;20473;-61
2021/12/03 03:17:22;;;;;;;;;;;;;;;3.40;77.62;98891.88;1762032;81;20563;-60
2021/12/03 03:19:51;;;;;;;;;;;;;;;3.41;77.68;98898.13;1762235;81;20224;-60
2021/12/03 03:22:19;;;;;;;;;;;;;;;3.36;77.64;98893.79;1744625;81;20238;-62
2021/12/03 03:24:49;;;;;;;;;;;;;;;3.32;77.64;98888.42;1774347;79;20490;-59
2021/12/03 03:27:18;;;;;;;;;;;;;;;3.29;77.73;98888.29;1805427;79;20169;-60
2021/12/03 03:29:48;;;;;;;;;;;;;;;3.28;77.82;98881.72;1805403;79;20539;-60
2021/12/03 03:32:16;;;;;;;;;;;;;;;3.29;77.87;98873.92;1805322;79;20529;-60
2021/12/03 03:34:45;;;;;;;;;;;;;;;3.30;77.94;98872.37;1805593;79;20455;-60
2021/12/03 03:37:14;;;;;;;;;;;;;;;3.29;77.91;98867.99;1805267;79;20157;-59
2021/12/03 03:39:44;;;;;;;;;;;;;;;3.30;77.85;98857.48;1805394;79;20180;-60
2021/12/03 03:42:12;;;;;;;;;;;;;;;3.27;77.85;98846.20;1805144;79;20571;-60
2021/12/03 03:44:41;;;;;;;;;;;;;;;3.23;77.91;98847.06;1805338;79;20217;-59
2021/12/03 03:47:10;;;;;;;;;;;;;;;3.21;78.04;98855.89;1805219;79;20552;-64
2021/12/03 03:49:39;;;;;;;;;;;;;;;3.21;78.06;98861.81;1805061;79;20335;-60
2021/12/03 03:52:08;;;;;;;;;;;;;;;3.15;77.87;98849.36;1805674;79;20455;-61
2021/12/03 03:54:36;;;;;;;;;;;;;;;3.04;77.82;98847.64;1805090;79;20467;-60
2021/12/03 03:57:05;;;;;;;;;;;;;;;2.95;77.91;98846.06;1805234;79;20153;-60
2021/12/03 03:59:33;;;;;;;;;;;;;;;2.90;78.06;98845.27;1805379;79;20153;-60
2021/12/03 04:02:02;;;;;;;;;;;;;;;2.91;78.17;98840.70;1805231;79;20157;-60
2021/12/03 04:04:31;;;;;;;;;;;;;;;2.91;78.26;98845.60;1805167;79;20213;-60
2021/12/03 04:06:59;;;;;;;;;;;;;;;2.86;78.22;98852.92;1805191;79;20261;-60
2021/12/03 04:09:28;;;;;;;;;;;;;;;2.84;78.35;98850.92;1805179;79;20208;-61
2021/12/03 04:11:57;;;;;;;;;;;;;;;2.81;78.41;98851.29;1805047;79;20170;-64
2021/12/03 04:14:27;;;;;;;;;;;;;;;2.79;78.46;98842.52;1805094;79;20181;-60
2021/12/03 04:16:55;;;;;;;;;;;;;;;2.78;78.56;98845.41;1805375;79;20146;-62
2021/12/03 04:19:24;;;;;;;;;;;;;;;2.73;78.67;98843.27;1805229;79;20287;-59
2021/12/03 04:21:52;;;;;;;;;;;;;;;2.73;78.75;98845.13;1805696;79;20486;-60
2021/12/03 04:24:21;;;;;;;;;;;;;;;2.70;78.79;98845.50;1805145;79;20205;-60
2021/12/03 04:26:49;;;;;;;;;;;;;;;2.66;78.88;98834.22;1795267;79;20201;-60
2021/12/03 04:29:17;;;;;;;;;;;;;;;2.67;79.11;98834.55;1794869;80;20218;-61
2021/12/03 04:31:46;;;;;;;;;;;;;;;2.66;79.22;98834.73;1795260;80;20480;-61
2021/12/03 04:34:14;;;;;;;;;;;;;;;2.66;79.32;98830.16;1795536;80;20213;-60
2021/12/03 04:36:43;;;;;;;;;;;;;;;2.69;79.47;98827.09;1794838;80;20241;-62
2021/12/03 04:39:12;;;;;;;;;;;;;;;2.66;79.57;98834.22;1795219;80;20485;-60
2021/12/03 04:41:40;;;;;;;;;;;;;;;2.63;79.74;98841.86;1795221;80;20150;-61
2021/12/03 04:44:09;;;;;;;;;;;;;;;2.62;79.89;98845.59;1795207;80;20460;-61
2021/12/03 04:46:41;;;;;;;;;;;;;;;2.62;79.99;98839.67;1795294;80;20162;-60
2021/12/03 04:49:10;;;;;;;;;;;;;;;2.65;80.06;98837.95;1794945;80;20201;-61
2021/12/03 04:51:38;;;;;;;;;;;;;;;2.68;80.12;98851.09;1795067;80;20511;-61
2021/12/03 04:54:06;;;;;;;;;;;;;;;2.71;80.13;98848.53;1795080;80;20536;-62
2021/12/03 04:56:34;;;;;;;;;;;;;;;2.71;80.12;98852.08;1795027;80;20154;-61
2021/12/03 04:59:03;;;;;;;;;;;;;;;2.72;80.15;98849.70;1795546;80;20150;-61
2021/12/03 05:01:32;;;;;;;;;;;;;;;2.77;80.16;98849.98;1794719;80;20217;-60
2021/12/03 05:04:01;;;;;;;;;;;;;;;2.82;80.16;98836.73;1795255;80;20181;-60
2021/12/03 05:06:31;;;;;;;;;;;;;;;2.86;80.08;98831.80;1795288;80;20514;-61
2021/12/03 05:08:59;;;;;;;;;;;;;;;2.91;80.07;98826.66;1795060;80;20274;-61
2021/12/03 05:11:28;;;;;;;;;;;;;;;2.94;79.95;98820.88;1795023;80;20268;-60
2021/12/03 05:13:56;;;;;;;;;;;;;;;2.97;79.95;98817.80;1795110;80;20150;-60
2021/12/03 05:16:25;;;;;;;;;;;;;;;3.02;79.86;98805.06;1795320;80;20242;-60
2021/12/03 05:18:54;;;;;;;;;;;;;;;3.03;79.76;98793.21;1795242;80;20217;-63
2021/12/03 05:21:25;;;;;;;;;;;;;;;3.07;79.68;98790.45;1795123;80;20145;-60
2021/12/03 05:23:53;;;;;;;;;;;;;;;3.10;79.59;98787.38;1795315;80;20146;-61
2021/12/03 05:26:21;;;;;;;;;;;;;;;3.09;79.39;98778.93;1801419;79;20192;-60
2021/12/03 05:28:50;;;;;;;;;;;;;;;3.08;79.40;98767.27;1805169;79;20525;-62
2021/12/03 05:31:18;;;;;;;;;;;;;;;3.09;79.45;98751.87;1805296;79;20181;-61
2021/12/03 05:37:14;;;;;;;;;;;;;;;3.14;79.48;98749.44;1805176;79;20141;-61
2021/12/03 05:39:42;;;;;;;;;;;;;;;3.19;79.38;98760.52;1805343;79;20186;-61
2021/12/03 05:42:10;;;;;;;;;;;;;;;3.20;79.31;98770.31;1805380;79;20165;-61
2021/12/03 05:44:38;;;;;;;;;;;;;;;3.20;79.21;98762.20;1804787;79;20177;-62
2021/12/03 05:47:07;;;;;;;;;;;;;;;3.19;79.23;98763.23;1805710;79;20157;-74
2021/12/03 05:49:36;;;;;;;;;;;;;;;3.19;79.25;98771.34;1805276;79;20224;-61
2021/12/03 05:52:05;;;;;;;;;;;;;;;3.16;79.29;98776.63;1804882;79;20189;-61
2021/12/03 05:54:34;;;;;;;;;;;;;;;3.18;79.36;98766.96;1805297;79;20206;-61
2021/12/03 05:57:03;;;;;;;;;;;;;;;3.18;79.34;98764.26;1805711;79;20153;-62
2021/12/03 05:59:31;;;;;;;;;;;;;;;3.20;79.35;98754.08;1805041;79;20329;-62
2021/12/03 06:02:00;;;;;;;;;;;;;;;3.22;79.39;98747.96;1804956;79;20197;-62
2021/12/03 06:04:30;;;;;;;;;;;;;;;3.26;79.42;98744.39;1805008;79;20455;-60
2021/12/03 06:06:58;;;;;;;;;;;;;;;3.31;79.39;98752.26;1805183;79;20180;-62
2021/12/03 06:09:26;;;;;;;;;;;;;;;3.36;79.26;98774.17;1805152;79;20545;-62
2021/12/03 06:11:57;;;;;;;;;;;;;;;3.38;79.19;98794.28;1805290;79;20451;-62
2021/12/03 06:14:25;;;;;;;;;;;;;;;3.38;79.18;98814.07;1805402;79;20299;-62
2021/12/03 06:16:56;;;;;;;;;;;;;;;3.40;79.19;98829.61;1805014;79;20161;-61
2021/12/03 06:19:23;;;;;;;;;;;;;;;3.40;79.08;98843.14;1804990;79;20196;-63
2021/12/03 06:21:52;;;;;;;;;;;;;;;3.40;79.05;98853.97;1805669;79;20157;-60
2021/12/03 06:24:22;;;;;;;;;;;;;;;3.44;79.03;98855.78;1805111;79;20218;-61
2021/12/03 06:26:50;;;;;;;;;;;;;;;3.48;79.04;98867.91;1797649;79;20246;-62
2021/12/03 06:29:18;;;;;;;;;;;;;;;3.54;79.01;98867.66;1795051;80;20225;-62
2021/12/03 06:31:47;;;;;;;;;;;;;;;3.58;78.90;98865.73;1795196;80;20154;-62
2021/12/03 06:34:15;;;;;;;;;;;;;;;3.61;78.78;98857.75;1794880;80;20463;-62
2021/12/03 06:36:43;;;;;;;;;;;;;;;3.65;78.73;98862.59;1794847;80;20217;-62
2021/12/03 06:39:11;;;;;;;;;;;;;;;3.70;78.55;98872.34;1794929;80;20218;-63
2021/12/03 06:41:39;;;;;;;;;;;;;;;3.70;78.38;98876.91;1795141;80;20233;-62
2021/12/03 06:44:08;;;;;;;;;;;;;;;3.72;78.31;98870.79;1795046;80;20147;-62
2021/12/03 06:46:37;;;;;;;;;;;;;;;3.75;78.25;98872.60;1795394;80;20178;-62
2021/12/03 06:49:05;;;;;;;;;;;;;;;3.74;78.11;98879.56;1794797;80;20210;-61
2021/12/03 06:51:40;;;;;;;;;;;;;;;3.75;78.11;98879.89;1795131;80;20153;-61
2021/12/03 06:54:05;;;;;;;;;;;;;;;3.79;78.08;98877.95;1795125;80;20166;-62
2021/12/03 06:56:44;;;;;;;;;;;;;;;3.83;78.07;98883.31;1795112;80;20263;-61
2021/12/03 06:59:03;;;;;;;;;;;;;;;3.88;78.05;98885.45;1795057;80;20210;-62
2021/12/03 07:01:33;;;;;;;;;;;;;;;3.94;78.05;98891.48;1794858;80;20201;-63
2021/12/03 07:04:01;;;;;;;;;;;;;;;3.98;77.97;98894.65;1795153;80;20179;-62
2021/12/03 07:06:30;;;;;;;;;;;;;;;4.02;77.90;98893.23;1794855;80;20296;-62
2021/12/03 07:08:58;;;;;;;;;;;;;;;4.03;77.75;98874.07;1795176;80;20162;-62
2021/12/03 07:11:28;;;;;;;;;;;;;;;4.05;77.62;98863.88;1795304;80;20177;-62
2021/12/03 07:13:58;;;;;;;;;;;;;;;4.09;77.54;98857.55;1795077;80;20165;-61
2021/12/03 07:16:27;;;;;;;;;;;;;;;4.11;77.41;98864.97;1795160;80;20142;-62
2021/12/03 07:18:58;;;;;;;;;;;;;;;4.11;77.29;98859.03;1795513;80;20198;-64
2021/12/03 07:21:27;;;;;;;;;;;;;;;4.12;77.25;98863.42;1795038;80;20220;-61
2021/12/03 07:23:56;;;;;;;;;;;;;;;4.17;77.24;98858.77;1794923;80;20264;-61
2021/12/03 07:26:27;;;;;;;;;;;;;;;4.18;77.13;98857.73;1799340;79;20205;-62
2021/12/03 07:28:55;;;;;;;;;;;;;;;4.20;77.05;98854.31;1805297;79;20471;-62
2021/12/03 07:31:24;;;;;;;;;;;;;;;4.21;76.98;98857.35;1804971;79;20154;-62
2021/12/03 07:33:55;;;;;;;;;;;;;;;4.24;76.94;98865.61;1805121;79;20200;-63
2021/12/03 07:36:25;;;;;;;;;;;;;;;4.25;76.90;98867.28;1804932;79;20161;-61
2021/12/03 07:38:53;;;;;;;;;;;;;;;4.27;76.87;98872.00;1805186;79;20328;-61
2021/12/03 07:41:22;;;;;;;;;;;;;;;4.29;76.88;98875.35;1804749;79;20181;-62
2021/12/03 07:43:50;;;;;;;;;;;;;;;4.33;76.81;98883.42;1805157;79;20189;-61
2021/12/03 07:46:18;;;;;;;;;;;;;;;4.34;76.68;98880.51;1805087;79;20184;-62
2021/12/03 07:48:49;;;;;;;;;;;;;;;4.35;76.62;98875.41;1805193;79;20173;-62
2021/12/03 07:51:17;;;;;;;;;;;;;;;4.37;76.58;98879.28;1805168;79;20165;-62
2021/12/03 07:53:45;;;;;;;;;;;;;;;4.40;76.60;98878.38;1805194;79;20158;-69
2021/12/03 07:56:15;;;;;;;;;;;;;;;4.44;76.56;98889.67;1805365;79;20173;-61
2021/12/03 07:58:43;;;;;;;;;;;;;;;4.45;76.42;98892.19;1805041;79;20193;-62
2021/12/03 08:01:11;;;;;;;;;;;;;;;4.48;76.43;98887.41;1804628;79;20173;-60
2021/12/03 08:03:40;;;;;;;;;;;;;;;4.53;76.37;98895.27;1805059;79;20185;-62
2021/12/03 08:06:12;;;;;;;;;;;;;;;4.59;76.41;98892.33;1805098;79;20196;-62
2021/12/03 08:08:41;;;;;;;;;;;;;;;4.65;76.17;98897.80;1804902;79;20157;-61
2021/12/03 08:11:11;;;;;;;;;;;;;;;4.67;76.17;98901.16;1805184;79;20568;-69
2021/12/03 08:13:42;;;;;;;;;;;;;;;4.70;75.88;98896.69;1805012;79;20153;-62
2021/12/03 08:16:10;;;;;;;;;;;;;;;4.71;75.85;98888.87;1804861;79;20306;-62
2021/12/03 08:18:39;;;;;;;;;;;;;;;4.75;75.73;98902.37;1805016;79;20201;-61
2021/12/03 08:21:07;;;;;;;;;;;;;;;4.77;75.65;98909.79;1804877;79;20471;-64
2021/12/03 08:23:35;;;;;;;;;;;;;;;4.80;75.58;98897.70;1804880;79;20264;-62
2021/12/03 08:26:04;;;;;;;;;;;;;;;4.81;75.39;98896.67;1803213;79;20166;-62
2021/12/03 08:28:34;;;;;;;;;;;;;;;4.84;75.39;98895.44;1795054;80;20167;-62
2021/12/03 08:31:03;;;;;;;;;;;;;;;4.85;75.25;98896.59;1794734;80;20221;-62
2021/12/03 08:33:31;;;;;;;;;;;;;;;4.86;75.26;98872.49;1794582;80;20606;-61
2021/12/03 08:35:59;;;;;;;;;;;;;;;4.90;75.27;98871.58;1794906;80;20502;-62
2021/12/03 08:38:28;;;;;;;;;;;;;;;4.92;75.11;98845.91;1795147;80;20229;-62
2021/12/03 08:40:58;;;;;;;;;;;;;;;4.93;75.03;98854.89;1795026;80;20149;-62
2021/12/03 08:43:28;;;;;;;;;;;;;;;4.94;75.06;98846.55;1794733;80;20229;-61
2021/12/03 08:46:08;;;;;;;;;;;;;;;4.98;74.90;98856.48;1795282;80;20201;-62
2021/12/03 08:48:37;;;;;;;;;;;;;;;5.01;74.83;98850.14;1795127;80;20150;-62
2021/12/03 08:56:13;;;;;;;;;;;;;;;5.08;74.49;98889.02;1794836;80;20201;-62
2021/12/03 08:58:41;;;;;;;;;;;;;;;5.11;74.42;98897.28;1794658;80;20189;-61
2021/12/03 09:01:12;;;;;;;;;;;;;;;5.14;74.69;98880.59;1795888;78;20197;-60
2021/12/03 09:03:41;;;;;;;;;;;;;;;5.17;74.80;98886.98;1777382;78;20217;-60
2021/12/03 09:06:10;;;;;;;;;;;;;;;5.18;74.51;98890.02;1827251;78;20259;-65
2021/12/03 09:08:38;;;;;;;;;;;;;;;5.18;74.25;98891.38;1813825;78;20476;-62
2021/12/03 09:11:09;;;;;;;;;;;;;;;5.14;74.03;98888.74;1780557;80;20181;-61
2021/12/03 09:13:39;;;;;;;;;;;;;;;5.14;74.12;98888.74;1772944;81;20253;-62
2021/12/03 09:16:15;;;;;;;;;;;;;;;5.15;74.22;98874.65;1773084;80;20221;-62
2021/12/03 09:18:44;;;;;;;;;;;;;;;5.15;74.01;98892.30;1725600;83;20249;-63
2021/12/03 09:21:18;;;;;;;;;;;;;;;5.11;74.04;98909.50;1735475;83;20323;-61
2021/12/03 09:26:17;;;;;;;;;;;;;;;5.09;74.03;98908.34;1771458;81;20173;-62
2021/12/03 09:28:48;;;;;;;;;;;;;;;5.05;74.01;98903.51;1756285;81;20221;-62
2021/12/03 09:31:18;;;;;;;;;;;;;;;5.02;73.88;98913.41;1757217;82;20202;-62
2021/12/03 09:33:49;;;;;;;;;;;;;;;4.96;73.82;98910.97;1766978;80;20209;-62
2021/12/03 09:36:17;;;;;;;;;;;;;;;4.92;73.81;98898.00;1799979;80;20149;-63
2021/12/03 09:38:46;;;;;;;;;;;;;;;4.91;74.01;98910.73;1800080;80;20217;-66
2021/12/03 09:41:19;;;;;;;;;;;;;;;4.90;74.05;98912.28;1800157;80;20201;-61
2021/12/03 09:43:49;;;;;;;;;;;;;;;4.85;73.90;98915.59;1799786;80;20213;-61
2021/12/03 09:46:22;;;;;;;;;;;;;;;4.82;74.11;98904.30;1799942;80;20141;-62
2021/12/03 09:49:03;;;;;;;;;;;;;;;4.81;74.25;98914.30;1800430;80;20177;-62
2021/12/03 09:51:28;;;;;;;;;;;;;;;4.80;74.27;98917.22;1771293;81;20351;-61
2021/12/03 09:56:48;;;;;;;;;;;;;;;4.77;74.62;98912.50;1712178;83;20173;-62
2021/12/03 10:02:14;;;;;;;;;;;;;;;4.72;74.56;98917.68;1629693;86;20206;-63
2021/12/03 10:15:18;;;;;;;;;;;;;;;4.70;75.43;98906.19;1722191;83;20167;-62
2021/12/03 10:37:09;;;;;;;;;;;;;;;4.30;75.40;98944.80;1760123;81;20154;-63
2021/12/03 10:42:37;;;;;;;;;;;;;;;4.23;75.00;98969.65;1799775;80;20213;-62
2021/12/03 10:46:01;;;;;;;;;;;;;;;4.22;74.73;98975.59;1772855;80;20159;-62
2021/12/03 10:47:59;;;;;;;;;;;;;;;4.23;74.47;98969.65;1795644;79;20368;-62
2021/12/03 10:53:12;;;;;;;;;;;;;;;4.17;73.95;98960.42;1817200;79;20192;-62
2021/12/03 11:01:34;;;;;;;;;;;;;;;4.05;74.29;98962.79;1748031;82;20174;-63
2021/12/03 11:04:24;;;;;;;;;;;;;;;4.05;74.55;98973.63;1795960;79;20177;-62
2021/12/03 11:12:23;;;;;;;;;;;;;;;3.97;75.04;98992.71;1793168;79;20281;-61
2021/12/03 11:15:06;;;;;;;;;;;;;;;3.93;75.15;98997.34;1783873;79;20226;-62
2021/12/03 11:30:40;;;;;;;;;;;;;;;3.80;76.90;99029.98;1771362;81;20442;-59
2021/12/03 11:41:49;;;;;;;;;;;;;;;3.61;78.09;99027.84;1786873;80;20157;-59
2021/12/03 12:41:18;;;;;;;;;;;;;;;2.96;80.86;99159.69;1802906;79;20153;-61
2021/12/03 12:58:04;;;;;;;;;;;;;;;2.96;81.12;99173.21;1638457;87;20318;-61
2021/12/03 13:14:29;;;;;;;;;;;;;;;2.83;81.24;99194.09;1671057;85;20535;-61
2021/12/03 13:59:26;;;;;;;;;;;;;;;2.67;82.23;99332.59;1693563;85;20225;-62
2021/12/03 14:37:17;;;;;;;;;;;;;;;2.35;83.58;99386.19;1664401;86;20587;-60
2021/12/03 14:50:38;;;;;;;;;;;;;;;2.23;83.85;99401.39;1718899;82;20522;-59
2021/12/03 14:55:52;;;;;;;;;;;;;;;2.22;83.99;99413.72;1751140;82;20335;-58
2021/12/03 14:58:29;;;;;;;;;;;;;;;2.22;84.03;99433.98;1750912;81;20475;-60
2021/12/03 15:00:54;;;;;;;;;;;;;;;2.21;83.98;99429.09;1751278;82;20455;-60
2021/12/03 15:11:49;;;;;;;;;;;;;;;2.31;84.28;99427.58;1701023;83;20199;-60
2021/12/03 15:17:50;;;;;;;;;;;;;;;2.30;83.89;99433.99;1699579;84;20221;-60
2021/12/03 15:19:15;;;;;;;;;;;;;;;2.31;83.91;99435.68;1690469;84;20171;-60
2021/12/03 15:35:23;;;;;;;;;;;;;;;2.21;83.01;99460.17;1694267;84;20298;-62
2021/12/03 15:38:13;;;;;;;;;;;;;;;2.19;82.55;99464.05;1694471;85;20166;-61
2021/12/03 15:40:43;;;;;;;;;;;;;;;2.16;82.69;99465.73;1692620;83;20206;-61
2021/12/03 16:05:17;;;;;;;;;;;;;;;2.17;82.60;99503.40;1721247;83;20485;-60
2021/12/03 16:07:59;;;;;;;;;;;;;;;2.16;82.37;99503.06;1720123;83;20218;-62
2021/12/03 16:10:20;;;;;;;;;;;;;;;2.15;82.21;99505.92;1718852;83;20254;-62
2021/12/03 16:13:06;;;;;;;;;;;;;;;2.17;82.38;99516.91;1721137;83;20473;-61
2021/12/03 16:15:37;;;;;;;;;;;;;;;2.19;82.06;99513.53;1747035;81;20264;-62
2021/12/03 16:18:43;;;;;;;;;;;;;;;2.16;82.03;99511.16;1763872;80;20220;-60
2021/12/03 16:20:52;;;;;;;;;;;;;;;2.16;82.13;99500.36;1747949;81;20579;-62
2021/12/03 16:26:21;;;;;;;;;;;;;;;2.18;81.71;99517.25;1756633;82;20161;-61
2021/12/03 16:51:10;;;;;;;;;;;;;;;2.05;80.80;99566.02;1747100;82;20216;-62
2021/12/03 16:53:29;;;;;;;;;;;;;;;2.04;80.79;99563.81;1698114;83;20214;-65
2021/12/03 16:56:08;;;;;;;;;;;;;;;2.03;80.39;99574.28;1693581;84;20209;-60
2021/12/03 16:58:35;;;;;;;;;;;;;;;2.04;80.30;99573.78;1694956;84;20571;-61
2021/12/03 17:01:14;;;;;;;;;;;;;;;2.02;80.27;99580.70;1695645;85;20475;-61
2021/12/03 17:03:48;;;;;;;;;;;;;;;2.07;80.37;99580.20;1708695;84;20235;-62
2021/12/03 17:09:09;;;;;;;;;;;;;;;2.02;80.32;99594.20;1724757;82;20271;-64
2021/12/03 17:14:10;;;;;;;;;;;;;;;1.91;79.81;99610.17;1722410;82;20237;-62
2021/12/03 17:24:56;;;;;;;;;;;;;;;1.82;80.25;99602.19;1668560;83;20196;-63
2021/12/03 17:51:46;;;;;;;;;;;;;;;1.79;80.24;99613.31;1731831;82;20152;-63
2021/12/03 17:56:54;;;;;;;;;;;;;;;1.74;79.89;99640.80;1709151;83;20278;-62
2021/12/03 17:59:36;;;;;;;;;;;;;;;1.72;79.88;99637.91;1723341;83;20167;-62
2021/12/03 18:08:11;;;;;;;;;;;;;;;1.76;80.06;99644.69;1723134;83;20207;-61
2021/12/03 18:43:45;;;;;;;;;;;;;;;1.56;79.41;99700.75;1720426;83;20168;-62
2021/12/03 18:46:21;;;;;;;;;;;;;;;1.55;79.36;99699.91;1672057;85;20153;-61
2021/12/03 18:48:52;;;;;;;;;;;;;;;1.62;79.54;99697.92;1672017;86;20204;-60
2021/12/03 18:51:17;;;;;;;;;;;;;;;1.64;79.51;99707.56;1672308;85;20247;-62
2021/12/03 18:56:34;;;;;;;;;;;;;;;1.64;79.25;99710.77;1686693;84;20173;-62
2021/12/03 18:59:07;;;;;;;;;;;;;;;1.59;79.19;99716.13;1686637;85;20227;-62
2021/12/03 19:01:38;;;;;;;;;;;;;;;1.58;79.15;99718.98;1687054;85;20216;-62
2021/12/03 19:04:18;;;;;;;;;;;;;;;1.55;79.18;99724.20;1686410;85;20157;-62
2021/12/03 19:07:02;;;;;;;;;;;;;;;1.55;79.20;99741.75;1686357;84;20180;-62
2021/12/03 19:09:27;;;;;;;;;;;;;;;1.52;79.24;99750.66;1686407;84;20451;-62
2021/12/03 19:12:06;;;;;;;;;;;;;;;1.51;79.09;99748.97;1686743;84;20217;-62
2021/12/03 19:14:35;;;;;;;;;;;;;;;1.47;79.15;99759.23;1686515;84;20221;-62
2021/12/03 19:17:02;;;;;;;;;;;;;;;1.44;79.15;99756.84;1686764;84;20374;-62
2021/12/03 19:19:30;;;;;;;;;;;;;;;1.42;79.17;99769.64;1686682;85;20156;-61
2021/12/03 19:22:00;;;;;;;;;;;;;;;1.42;79.13;99772.84;1686736;85;20224;-61
2021/12/03 19:24:29;;;;;;;;;;;;;;;1.38;78.94;99776.35;1686791;85;20295;-61
2021/12/03 19:26:57;;;;;;;;;;;;;;;1.35;78.94;99776.66;1686585;85;20216;-62
2021/12/03 19:29:26;;;;;;;;;;;;;;;1.33;79.08;99782.71;1687005;85;20204;-62
2021/12/03 19:31:54;;;;;;;;;;;;;;;1.33;79.12;99781.86;1686688;85;20225;-63
2021/12/03 19:34:24;;;;;;;;;;;;;;;1.33;79.12;99786.77;1686566;84;20252;-62
2021/12/03 19:36:52;;;;;;;;;;;;;;;1.32;79.01;99781.02;1686460;85;20212;-64
2021/12/03 19:39:21;;;;;;;;;;;;;;;1.35;79.11;99784.75;1686416;85;20188;-61
2021/12/03 19:42:16;;;;;;;;;;;;;;;1.36;78.89;99786.95;1686736;84;20148;-61
2021/12/03 19:44:34;;;;;;;;;;;;;;;1.33;78.93;99785.91;1695081;82;20504;-61
2021/12/03 19:46:54;;;;;;;;;;;;;;;1.33;78.92;99789.95;1722343;83;20176;-61
2021/12/03 19:52:08;;;;;;;;;;;;;;;1.28;78.87;99787.19;1723750;83;20160;-61
2021/12/03 19:54:32;;;;;;;;;;;;;;;1.25;78.77;99792.89;1723166;83;20553;-62
2021/12/03 19:57:01;;;;;;;;;;;;;;;1.25;78.78;99792.05;1723419;83;20176;-64
2021/12/03 19:59:31;;;;;;;;;;;;;;;1.23;78.73;99797.59;1723456;83;20235;-64
2021/12/03 20:01:59;;;;;;;;;;;;;;;1.23;78.72;99795.40;1723368;83;20203;-61
2021/12/03 20:04:30;;;;;;;;;;;;;;;1.18;78.39;99804.45;1723626;83;20161;-62
2021/12/03 20:07:01;;;;;;;;;;;;;;;1.14;78.44;99801.70;1698610;84;20160;-62
2021/12/03 20:09:58;;;;;;;;;;;;;;;1.10;78.33;99805.21;1699027;84;20184;-63